createdAt,value
2023-03-27T00:00:16.639Z,1.70
2023-03-27T00:02:47.075Z,1.00
2023-03-27T00:05:16.316Z,1.57
2023-03-27T00:07:48.790Z,2.67
2023-03-27T00:10:17.746Z,6.87
2023-03-27T00:12:46.181Z,14.00
2023-03-27T00:15:17.181Z,22.77
2023-03-27T00:17:48.086Z,25.63
2023-03-27T00:20:17.671Z,29.57
2023-03-27T00:22:48.432Z,26.93
2023-03-27T00:25:19.008Z,28.43
2023-03-27T00:27:49.570Z,30.07
2023-03-27T00:30:17.862Z,31.97
2023-03-27T00:32:46.134Z,32.83
2023-03-27T00:35:15.244Z,29.73
2023-03-27T00:37:43.411Z,27.37
2023-03-27T00:40:15.536Z,27.47
2023-03-27T00:42:44.235Z,24.80
2023-03-27T00:45:19.149Z,22.40
2023-03-27T00:47:49.295Z,23.10
2023-03-27T00:50:21.752Z,20.10
2023-03-27T00:52:56.315Z,18.67
2023-03-27T00:55:28.448Z,16.40
2023-03-27T00:58:02.252Z,16.00
2023-03-27T01:00:30.262Z,15.47
2023-03-27T01:03:01.092Z,18.77
2023-03-27T01:05:29.492Z,21.60
2023-03-27T01:08:01.541Z,15.87
2023-03-27T01:10:42.037Z,11.80
2023-03-27T01:13:32.271Z,9.60
2023-03-27T01:16:07.206Z,10.23
2023-03-27T01:18:45.315Z,9.17
2023-03-27T01:21:47.012Z,9.07
2023-03-27T01:24:54.826Z,11.10
2023-03-27T01:27:44.278Z,13.60
2023-03-27T01:30:19.158Z,17.70
2023-03-27T01:33:10.716Z,18.57
2023-03-27T01:35:59.109Z,20.57
2023-03-27T01:39:01.230Z,21.03
2023-03-27T01:41:33.129Z,24.57
2023-03-27T01:44:06.314Z,23.20
2023-03-27T01:46:41.966Z,23.20
2023-03-27T01:49:17.783Z,23.50
2023-03-27T01:51:55.750Z,22.27
2023-03-27T01:54:29.384Z,18.80
2023-03-27T01:57:04.447Z,13.00
2023-03-27T01:59:37.138Z,7.97
2023-03-27T02:02:10.395Z,8.17
2023-03-27T02:04:44.204Z,7.43
2023-03-27T02:07:18.779Z,7.00
2023-03-27T02:09:50.905Z,7.00
2023-03-27T02:12:22.894Z,6.67
2023-03-27T02:14:57.786Z,5.87
2023-03-27T02:17:50.840Z,5.73
2023-03-27T02:20:20.581Z,8.90
2023-03-27T02:22:49.640Z,9.53
2023-03-27T02:25:26.982Z,14.70
2023-03-27T02:28:12.501Z,21.50
2023-03-27T02:30:46.301Z,26.13
2023-03-27T02:33:41.644Z,27.73
2023-03-27T02:36:23.367Z,30.63
2023-03-27T02:38:58.398Z,34.17
2023-03-27T02:41:31.651Z,35.73
2023-03-27T02:44:10.396Z,35.53
2023-03-27T02:46:44.562Z,35.53
2023-03-27T02:49:18.684Z,35.67
2023-03-27T02:51:52.712Z,35.80
2023-03-27T02:54:24.341Z,35.87
2023-03-27T02:56:56.330Z,36.20
2023-03-27T02:59:30.927Z,36.23
2023-03-27T03:01:59.701Z,36.63
2023-03-27T03:04:31.029Z,36.87
2023-03-27T03:07:04.712Z,36.90
2023-03-27T03:09:32.992Z,35.73
2023-03-27T03:12:01.955Z,35.63
2023-03-27T03:14:35.795Z,36.73
2023-03-27T03:17:03.815Z,36.10
2023-03-27T03:19:32.587Z,35.10
2023-03-27T03:22:01.834Z,36.33
2023-03-27T03:24:30.093Z,35.70
2023-03-27T03:26:58.145Z,35.13
2023-03-27T03:29:35.489Z,35.70
2023-03-27T03:32:06.373Z,35.43
2023-03-27T03:34:34.594Z,35.63
2023-03-27T03:37:04.471Z,36.03
2023-03-27T03:39:33.066Z,35.27
2023-03-27T03:42:01.324Z,34.90
2023-03-27T03:44:29.469Z,35.87
2023-03-27T03:46:57.705Z,35.40
2023-03-27T03:49:27.285Z,36.33
2023-03-27T03:52:03.627Z,36.87
2023-03-27T03:54:32.888Z,36.23
2023-03-27T03:57:01.138Z,37.00
2023-03-27T03:59:30.157Z,36.53
2023-03-27T04:01:58.438Z,36.97
2023-03-27T04:04:27.864Z,35.80
2023-03-27T04:06:58.390Z,36.30
2023-03-27T04:09:26.702Z,36.67
2023-03-27T04:11:55.235Z,36.27
2023-03-27T04:14:23.808Z,36.20
2023-03-27T04:16:52.352Z,34.87
2023-03-27T04:19:20.366Z,34.87
2023-03-27T04:21:52.480Z,35.60
2023-03-27T04:24:20.770Z,35.27
2023-03-27T04:26:49.144Z,35.20
2023-03-27T04:29:17.217Z,34.67
2023-03-27T04:31:46.598Z,35.00
2023-03-27T04:34:14.816Z,35.37
2023-03-27T04:36:42.959Z,35.03
2023-03-27T04:39:12.629Z,35.43
2023-03-27T04:41:40.964Z,35.63
2023-03-27T04:44:09.237Z,34.07
2023-03-27T04:46:37.481Z,35.13
2023-03-27T04:49:06.106Z,35.70
2023-03-27T04:51:34.292Z,35.63
2023-03-27T04:54:04.824Z,34.57
2023-03-27T04:56:34.984Z,34.10
2023-03-27T04:59:03.599Z,34.10
2023-03-27T05:01:32.457Z,34.70
2023-03-27T05:04:02.455Z,34.20
2023-03-27T05:06:32.897Z,33.90
2023-03-27T05:09:01.163Z,34.87
2023-03-27T05:11:29.346Z,34.13
2023-03-27T05:13:58.928Z,34.40
2023-03-27T05:16:27.905Z,34.50
2023-03-27T05:18:56.580Z,34.27
2023-03-27T05:21:24.687Z,34.73
2023-03-27T05:23:55.761Z,34.77
2023-03-27T05:26:23.793Z,34.37
2023-03-27T05:28:54.512Z,34.60
2023-03-27T05:31:24.979Z,33.80
2023-03-27T05:33:54.529Z,34.67
2023-03-27T05:36:23.202Z,34.10
2023-03-27T05:38:53.567Z,34.27
2023-03-27T05:41:21.871Z,34.20
2023-03-27T05:43:51.291Z,33.73
2023-03-27T05:46:20.758Z,33.60
2023-03-27T05:48:50.869Z,33.47
2023-03-27T05:51:19.539Z,32.87
2023-03-27T05:53:47.915Z,32.63
2023-03-27T05:56:16.107Z,32.27
2023-03-27T05:58:44.359Z,32.13
2023-03-27T06:01:13.968Z,32.47
2023-03-27T06:03:42.146Z,31.77
2023-03-27T06:06:14.049Z,31.70
2023-03-27T06:08:42.168Z,30.43
2023-03-27T06:11:11.732Z,30.80
2023-03-27T06:13:39.747Z,30.83
2023-03-27T06:16:09.773Z,28.80
2023-03-27T06:18:37.850Z,29.57
2023-03-27T06:21:06.736Z,27.23
2023-03-27T06:23:36.604Z,28.17
2023-03-27T06:26:05.266Z,22.47
2023-03-27T06:28:33.440Z,18.80
2023-03-27T06:31:01.728Z,16.00
2023-03-27T06:33:30.995Z,13.53
2023-03-27T06:36:00.814Z,8.57
2023-03-27T06:38:31.336Z,7.40
2023-03-27T06:41:01.005Z,5.27
2023-03-27T06:43:29.008Z,4.17
2023-03-27T06:45:57.369Z,4.30
2023-03-27T06:48:28.957Z,2.27
2023-03-27T06:50:57.769Z,2.73
2023-03-27T06:53:28.186Z,2.10
2023-03-27T06:55:57.961Z,2.73
2023-03-27T06:58:29.034Z,2.33
2023-03-27T07:00:57.511Z,2.60
2023-03-27T07:03:26.328Z,2.00
2023-03-27T07:05:55.813Z,3.07
2023-03-27T07:08:25.625Z,1.90
2023-03-27T07:11:10.843Z,1.40
2023-03-27T07:13:42.651Z,1.50
2023-03-27T07:16:12.547Z,1.50
2023-03-27T07:18:41.989Z,1.43
2023-03-27T07:21:10.575Z,2.53
2023-03-27T07:23:39.552Z,1.70
2023-03-27T07:26:08.538Z,1.60
2023-03-27T07:28:38.479Z,2.00
2023-03-27T07:31:29.382Z,2.37
2023-03-27T07:34:02.221Z,2.13
2023-03-27T07:36:30.751Z,1.80
2023-03-27T07:38:59.541Z,2.03
2023-03-27T07:41:30.002Z,1.77
2023-03-27T07:43:58.040Z,2.07
2023-03-27T07:46:28.244Z,1.33
2023-03-27T07:48:56.797Z,1.40
2023-03-27T07:51:25.886Z,1.83
2023-03-27T07:53:58.519Z,1.90
2023-03-27T07:56:27.099Z,1.27
2023-03-27T07:58:57.286Z,1.83
2023-03-27T08:01:26.033Z,1.53
2023-03-27T08:03:57.151Z,1.53
2023-03-27T08:06:27.174Z,1.13
2023-03-27T08:08:56.108Z,1.53
2023-03-27T08:11:30.571Z,1.50
2023-03-27T08:13:59.777Z,0.97
2023-03-27T08:16:29.998Z,1.20
2023-03-27T08:19:01.516Z,1.23
2023-03-27T08:21:33.274Z,1.07
2023-03-27T08:24:02.862Z,1.33
2023-03-27T08:26:31.218Z,1.20
2023-03-27T08:28:59.372Z,1.40
2023-03-27T08:31:30.606Z,1.30
2023-03-27T08:34:00.353Z,1.30
2023-03-27T08:36:28.956Z,0.90
2023-03-27T08:38:57.069Z,1.27
2023-03-27T08:41:33.084Z,1.10
2023-03-27T08:44:04.248Z,1.27
2023-03-27T08:46:39.142Z,0.77
2023-03-27T08:49:12.550Z,1.83
2023-03-27T08:51:47.141Z,1.00
2023-03-27T08:54:21.536Z,1.40
2023-03-27T08:56:50.408Z,1.23
2023-03-27T08:59:21.047Z,1.13
2023-03-27T09:01:59.338Z,1.47
2023-03-27T09:04:39.821Z,1.23
2023-03-27T09:07:11.567Z,1.13
2023-03-27T09:09:55.833Z,1.07
2023-03-27T09:12:40.989Z,1.23
2023-03-27T09:15:15.145Z,0.97
2023-03-27T09:17:48.884Z,0.97
2023-03-27T09:20:24.314Z,1.10
2023-03-27T09:22:55.000Z,1.13
2023-03-27T09:25:29.461Z,1.00
2023-03-27T09:28:03.514Z,0.87
2023-03-27T09:30:36.177Z,1.57
2023-03-27T09:33:07.288Z,2.00
2023-03-27T09:35:40.431Z,2.20
2023-03-27T09:38:26.153Z,2.03
2023-03-27T09:40:59.560Z,1.60
2023-03-27T09:43:37.552Z,1.23
2023-03-27T09:46:07.520Z,1.73
2023-03-27T09:48:39.773Z,1.13
2023-03-27T09:51:43.436Z,2.13
2023-03-27T09:54:14.397Z,1.20
2023-03-27T09:56:46.464Z,1.77
2023-03-27T09:59:25.078Z,1.07
2023-03-27T10:01:54.629Z,1.60
2023-03-27T10:04:24.951Z,1.03
2023-03-27T10:07:09.454Z,1.10
2023-03-27T10:09:40.755Z,1.97
2023-03-27T10:12:19.520Z,1.30
2023-03-27T10:14:52.434Z,0.97
2023-03-27T10:17:26.139Z,1.20
2023-03-27T10:19:59.362Z,1.00
2023-03-27T10:22:32.692Z,2.57
2023-03-27T10:25:04.798Z,1.10
2023-03-27T10:27:35.036Z,1.23
2023-03-27T10:30:04.388Z,1.10
2023-03-27T10:32:45.708Z,1.20
2023-03-27T10:35:25.003Z,1.13
2023-03-27T10:37:56.706Z,0.97
2023-03-27T10:40:28.062Z,0.80
2023-03-27T10:42:57.632Z,0.97
2023-03-27T10:45:26.019Z,1.00
2023-03-27T10:47:59.169Z,1.23
2023-03-27T10:50:33.705Z,1.27
2023-03-27T10:53:15.704Z,1.13
2023-03-27T10:55:54.294Z,0.90
2023-03-27T10:58:32.832Z,1.20
2023-03-27T11:01:07.531Z,1.00
2023-03-27T11:03:39.957Z,1.30
2023-03-27T11:06:12.906Z,1.03
2023-03-27T11:08:53.042Z,1.30
2023-03-27T11:11:28.756Z,2.03
2023-03-27T11:14:02.489Z,1.00
2023-03-27T11:16:36.555Z,1.50
2023-03-27T11:19:25.962Z,1.93
2023-03-27T11:21:57.389Z,0.93
2023-03-27T11:24:35.103Z,0.90
2023-03-27T11:27:10.048Z,0.93
2023-03-27T11:29:46.563Z,1.10
2023-03-27T11:32:21.221Z,1.20
2023-03-27T11:34:57.549Z,0.97
2023-03-27T11:37:35.369Z,1.27
2023-03-27T11:40:12.454Z,1.17
2023-03-27T11:42:43.607Z,1.03
2023-03-27T11:45:14.278Z,0.90
2023-03-27T11:47:59.592Z,1.43
2023-03-27T11:50:41.627Z,0.95
2023-03-27T11:53:51.707Z,1.00
2023-03-27T11:56:38.851Z,1.00
2023-03-27T11:59:21.344Z,1.43
2023-03-27T12:01:57.557Z,1.05
2023-03-27T12:04:39.087Z,1.25
2023-03-27T12:07:35.469Z,1.10
2023-03-27T12:10:25.326Z,1.40
2023-03-27T12:13:34.970Z,1.10
2023-03-27T12:16:32.923Z,1.30
2023-03-27T12:19:21.133Z,1.10
2023-03-27T12:22:22.584Z,0.97
2023-03-27T12:25:09.080Z,1.40
2023-03-27T12:27:50.423Z,1.30
2023-03-27T12:30:27.741Z,1.57
2023-03-27T12:33:29.831Z,1.30
2023-03-27T12:36:00.394Z,1.50
2023-03-27T12:38:32.091Z,1.10
2023-03-27T12:41:13.983Z,1.50
2023-03-27T12:43:47.833Z,1.13
2023-03-27T12:46:40.779Z,1.02
2023-03-27T12:49:48.354Z,1.10
2023-03-27T12:59:29.920Z,1.30
2023-03-27T13:03:00.749Z,1.70
2023-03-27T13:06:09.106Z,2.08
2023-03-27T13:09:22.658Z,1.23
2023-03-27T13:12:12.428Z,1.52
2023-03-27T13:15:36.824Z,1.05
2023-03-27T13:18:44.093Z,1.57
2023-03-27T13:21:23.171Z,1.20
2023-03-27T13:24:03.832Z,1.47
2023-03-27T13:26:45.478Z,1.60
2023-03-27T13:29:18.215Z,1.40
2023-03-27T13:32:04.924Z,1.23
2023-03-27T13:34:42.017Z,1.40
2023-03-27T13:37:44.267Z,1.55
2023-03-27T13:40:36.943Z,1.40
2023-03-27T13:43:22.757Z,1.77
2023-03-27T13:45:53.824Z,1.20
2023-03-27T13:48:57.476Z,1.95
2023-03-27T13:51:47.721Z,1.30
2023-03-27T13:54:58.685Z,1.25
2023-03-27T13:57:51.513Z,1.00
2023-03-27T14:00:49.085Z,1.83
2023-03-27T14:03:48.842Z,1.55
2023-03-27T14:06:53.739Z,1.10
2023-03-27T14:09:31.936Z,0.90
2023-03-27T14:12:14.271Z,1.35
2023-03-27T14:14:54.489Z,1.40
2023-03-27T14:17:42.174Z,1.25
2023-03-27T14:20:21.930Z,0.90
2023-03-27T14:22:57.013Z,1.20
2023-03-27T14:25:30.375Z,1.00
2023-03-27T14:27:58.869Z,1.55
2023-03-27T14:30:28.367Z,1.15
2023-03-27T14:32:58.025Z,1.40
2023-03-27T14:35:30.476Z,1.20
2023-03-27T14:38:02.041Z,2.03
2023-03-27T14:40:32.853Z,1.15
2023-03-27T14:43:02.670Z,1.05
2023-03-27T14:45:34.530Z,1.73
2023-03-27T14:48:06.526Z,2.28
2023-03-27T14:50:35.624Z,1.25
2023-03-27T14:53:10.385Z,1.00
2023-03-27T14:55:42.654Z,1.15
2023-03-27T14:58:18.731Z,0.93
2023-03-27T15:00:52.646Z,1.23
2023-03-27T15:03:28.960Z,1.60
2023-03-27T15:06:04.618Z,2.20
2023-03-27T15:08:46.223Z,1.77
2023-03-27T15:11:18.574Z,1.23
2023-03-27T15:13:48.241Z,1.10
2023-03-27T15:16:22.629Z,1.20
2023-03-27T15:19:05.031Z,1.42
2023-03-27T15:21:45.351Z,1.20
2023-03-27T15:24:19.751Z,1.20
2023-03-27T15:26:51.211Z,1.42
2023-03-27T15:29:27.666Z,1.23
2023-03-27T15:31:59.713Z,1.30
2023-03-27T15:34:36.544Z,1.20
2023-03-27T15:37:10.083Z,1.80
2023-03-27T15:39:59.015Z,0.93
2023-03-27T15:42:45.724Z,1.13
2023-03-27T15:45:16.881Z,1.33
2023-03-27T15:47:45.880Z,1.13
2023-03-27T15:50:18.892Z,1.30
2023-03-27T15:52:51.824Z,1.00
2023-03-27T15:55:39.869Z,1.13
2023-03-27T15:58:17.462Z,1.20
2023-03-27T16:00:48.263Z,1.23
2023-03-27T16:03:22.852Z,0.70
2023-03-27T16:05:52.512Z,0.98
2023-03-27T16:08:29.086Z,1.17
2023-03-27T16:10:59.348Z,1.20
2023-03-27T16:13:33.478Z,1.20
2023-03-27T16:16:03.647Z,1.52
2023-03-27T16:18:35.059Z,1.67
2023-03-27T16:21:09.323Z,1.90
2023-03-27T16:23:38.210Z,1.05
2023-03-27T16:26:10.570Z,1.73
2023-03-27T16:28:38.777Z,2.05
2023-03-27T16:31:12.296Z,1.55
2023-03-27T16:33:42.883Z,2.30
2023-03-27T16:36:15.241Z,1.08
2023-03-27T16:38:44.108Z,1.23
2023-03-27T16:41:18.051Z,1.60
2023-03-27T16:43:46.706Z,1.52
2023-03-27T16:46:19.682Z,1.25
2023-03-27T16:48:47.706Z,1.38
2023-03-27T16:51:16.724Z,1.40
2023-03-27T16:53:44.805Z,1.30
2023-03-27T16:56:14.950Z,1.25
2023-03-27T16:58:43.472Z,1.35
2023-03-27T17:01:12.194Z,1.05
2023-03-27T17:03:40.933Z,1.58
2023-03-27T17:06:11.846Z,1.27
2023-03-27T17:08:40.374Z,1.27
2023-03-27T17:11:10.976Z,0.98
2023-03-27T17:13:43.295Z,1.05
2023-03-27T17:16:12.131Z,2.40
2023-03-27T17:18:40.917Z,1.20
2023-03-27T17:21:09.088Z,0.97
2023-03-27T17:23:37.861Z,1.40
2023-03-27T17:26:07.502Z,2.00
2023-03-27T17:28:37.350Z,1.60
2023-03-27T17:31:07.392Z,1.30
2023-03-27T17:33:37.113Z,0.90
2023-03-27T17:36:09.698Z,1.27
2023-03-27T17:38:38.175Z,1.47
2023-03-27T17:41:07.000Z,1.30
2023-03-27T17:43:35.171Z,1.40
2023-03-27T17:46:03.686Z,1.43
2023-03-27T17:48:35.490Z,1.60
2023-03-27T17:51:09.450Z,1.87
2023-03-27T17:53:38.031Z,1.33
2023-03-27T17:56:07.373Z,1.90
2023-03-27T17:58:37.027Z,2.30
2023-03-27T18:01:14.922Z,1.37
2023-03-27T18:03:50.942Z,1.20
2023-03-27T18:06:19.640Z,1.23
2023-03-27T18:08:48.531Z,1.33
2023-03-27T18:11:17.367Z,2.07
2023-03-27T18:13:51.453Z,1.77
2023-03-27T18:16:20.266Z,1.53
2023-03-27T18:18:48.518Z,1.50
2023-03-27T18:21:18.630Z,1.57
2023-03-27T18:23:47.101Z,2.30
2023-03-27T18:26:15.678Z,2.23
2023-03-27T18:28:43.979Z,1.50
2023-03-27T18:31:13.258Z,2.23
2023-03-27T18:33:41.417Z,2.93
2023-03-27T18:36:12.037Z,1.70
2023-03-27T18:38:43.394Z,1.83
2023-03-27T18:41:14.665Z,1.40
2023-03-27T18:43:42.906Z,1.70
2023-03-27T18:46:16.588Z,1.67
2023-03-27T18:48:45.790Z,2.07
2023-03-27T18:51:14.384Z,2.70
2023-03-27T18:53:44.253Z,3.33
2023-03-27T18:56:13.663Z,2.23
2023-03-27T18:58:42.304Z,1.80
2023-03-27T19:01:10.905Z,1.67
2023-03-27T19:03:42.531Z,1.37
2023-03-27T19:06:12.461Z,1.50
2023-03-27T19:08:42.186Z,1.63
2023-03-27T19:11:11.915Z,1.70
2023-03-27T19:13:40.384Z,1.80
2023-03-27T19:16:15.044Z,1.90
2023-03-27T19:18:44.168Z,1.20
2023-03-27T19:21:12.294Z,0.97
2023-03-27T19:23:40.549Z,0.60
2023-03-27T19:26:10.496Z,1.60
2023-03-27T19:28:40.563Z,0.80
2023-03-27T19:31:09.519Z,0.90
2023-03-27T19:33:38.191Z,1.17
2023-03-27T19:36:10.546Z,0.93
2023-03-27T19:38:38.877Z,0.97
2023-03-27T19:41:10.390Z,1.10
2023-03-27T19:43:40.304Z,1.27
2023-03-27T19:46:16.256Z,0.90
2023-03-27T19:48:45.393Z,1.30
2023-03-27T19:51:13.613Z,1.53
2023-03-27T19:53:42.172Z,1.43
2023-03-27T19:56:10.395Z,1.70
2023-03-27T19:58:40.111Z,1.80
2023-03-27T20:01:08.683Z,1.70
2023-03-27T20:03:38.876Z,1.40
2023-03-27T20:06:13.360Z,1.30
2023-03-27T20:08:42.588Z,2.03
2023-03-27T20:11:10.889Z,1.97
2023-03-27T20:13:52.934Z,1.77
2023-03-27T20:16:25.178Z,1.70
2023-03-27T20:19:03.192Z,1.63
2023-03-27T20:21:33.873Z,2.60
2023-03-27T20:24:02.319Z,1.47
2023-03-27T20:26:32.525Z,1.40
2023-03-27T20:29:02.617Z,1.60
2023-03-27T20:31:30.939Z,1.77
2023-03-27T20:33:59.504Z,1.60
2023-03-27T20:36:28.366Z,1.80
2023-03-27T20:38:59.375Z,2.23
2023-03-27T20:41:30.997Z,1.70
2023-03-27T20:44:03.629Z,1.60
2023-03-27T20:46:33.079Z,2.33
2023-03-27T20:49:03.716Z,1.50
2023-03-27T20:51:31.711Z,2.40
2023-03-27T20:54:00.048Z,1.60
2023-03-27T20:56:28.258Z,1.97
2023-03-27T20:58:56.419Z,2.37
2023-03-27T21:01:27.590Z,2.30
2023-03-27T21:04:02.895Z,1.60
2023-03-27T21:06:35.824Z,1.60
2023-03-27T21:09:11.587Z,1.27
2023-03-27T21:17:47.131Z,2.20
2023-03-27T21:52:44.469Z,1.67
2023-03-27T21:55:12.929Z,2.00
2023-03-27T21:57:41.762Z,1.83
2023-03-27T22:00:12.875Z,1.57
2023-03-27T22:02:52.254Z,1.40
2023-03-27T22:05:21.171Z,2.10
2023-03-27T22:07:59.248Z,1.90
2023-03-27T22:10:31.029Z,1.83
2023-03-27T22:13:13.274Z,1.83
2023-03-27T22:15:42.542Z,2.13
2023-03-27T22:18:11.647Z,1.73
2023-03-27T22:20:40.126Z,2.37
2023-03-27T22:23:10.105Z,2.23
2023-03-27T22:25:38.981Z,2.00
2023-03-27T22:28:10.651Z,2.10
2023-03-27T22:30:41.349Z,2.23
2023-03-27T22:33:09.802Z,1.73
2023-03-27T22:35:39.759Z,1.57
2023-03-27T22:38:10.593Z,1.40
2023-03-27T22:40:39.359Z,2.10
2023-03-27T22:43:07.861Z,2.00
2023-03-27T22:45:41.880Z,1.60
2023-03-27T22:48:11.375Z,1.90
2023-03-27T22:50:40.592Z,2.20
2023-03-27T22:53:14.941Z,2.03
2023-03-27T22:55:46.113Z,1.90
2023-03-27T22:58:15.231Z,1.87
2023-03-27T23:00:48.142Z,1.93
2023-03-27T23:03:18.135Z,1.63
2023-03-27T23:05:50.829Z,2.10
2023-03-27T23:08:24.166Z,1.67
2023-03-27T23:10:59.504Z,1.87
2023-03-27T23:13:29.676Z,1.83
2023-03-27T23:15:58.419Z,2.20
2023-03-27T23:18:27.363Z,2.13
2023-03-27T23:20:56.821Z,1.77
2023-03-27T23:23:28.817Z,2.00
2023-03-27T23:26:00.052Z,1.93
2023-03-27T23:28:31.888Z,2.77
2023-03-27T23:31:02.051Z,2.03
2023-03-27T23:33:34.649Z,1.97
2023-03-27T23:36:06.119Z,1.83
2023-03-27T23:38:37.393Z,2.47
2023-03-27T23:41:07.205Z,2.00
2023-03-27T23:43:35.866Z,2.00
2023-03-27T23:46:05.781Z,2.23
2023-03-27T23:48:34.216Z,2.00
2023-03-27T23:51:02.761Z,2.27
2023-03-27T23:53:31.858Z,1.90
2023-03-27T23:56:04.087Z,2.10
2023-03-27T23:58:33.299Z,2.10
